Time;durP1;ratioP1;P1;durP2;ratioP2;P2;SDS_P1;SDS_P2;PMS_P1;PMS_P2;Temp;Humidity;BMP_temperature;BMP_pressure;BME280_temperature;BME280_humidity;BME280_pressure;Samples;Min_cycle;Max_cycle;Signal;HPM_P1;HPM_P2
2021/05/15 00:00:37;;;;;;;5.30;3.13;;;16.20;91.10;;;;;;5035723;28;20086;-81
2021/05/15 00:03:03;;;;;;;5.45;3.92;;;16.20;91.20;;;;;;5053996;28;20173;-81
2021/05/15 00:05:29;;;;;;;3.92;3.45;;;16.10;91.30;;;;;;5039269;28;20033;-81
2021/05/15 00:07:59;;;;;;;4.82;3.83;;;16.00;91.30;;;;;;5055565;28;20028;-81
2021/05/15 00:10:26;;;;;;;6.45;3.88;;;16.00;91.30;;;;;;5055858;28;20024;-82
2021/05/15 00:12:53;;;;;;;6.43;4.60;;;15.90;91.30;;;;;;5055762;28;20459;-81
2021/05/15 00:15:18;;;;;;;5.40;4.57;;;16.00;91.40;;;;;;5056759;28;20057;-81
2021/05/15 00:17:44;;;;;;;11.85;5.40;;;15.90;91.40;;;;;;5056619;28;20434;-82
2021/05/15 00:20:15;;;;;;;7.88;5.47;;;15.90;91.50;;;;;;5055248;28;20079;-81
2021/05/15 00:22:43;;;;;;;8.52;5.53;;;15.80;91.50;;;;;;5055501;28;20025;-80
2021/05/15 00:25:11;;;;;;;8.38;5.18;;;15.80;91.60;;;;;;5054789;28;20040;-81
2021/05/15 00:27:37;;;;;;;7.80;5.40;;;15.80;91.60;;;;;;5056415;28;20048;-81
2021/05/15 00:30:10;;;;;;;6.18;4.60;;;15.70;91.80;;;;;;5056338;28;20036;-81
2021/05/15 00:32:36;;;;;;;9.50;5.68;;;15.70;91.80;;;;;;5038984;28;20059;-84
2021/05/15 00:35:02;;;;;;;7.10;4.90;;;15.60;92.20;;;;;;5054840;28;20060;-84
2021/05/15 00:37:28;;;;;;;9.07;5.22;;;15.60;92.20;;;;;;5054538;28;20029;-80
2021/05/15 00:39:55;;;;;;;6.90;5.20;;;15.50;92.20;;;;;;5056549;28;20025;-80
2021/05/15 00:42:21;;;;;;;10.80;6.03;;;15.50;92.20;;;;;;5054933;28;20043;-81
2021/05/15 00:44:46;;;;;;;8.13;5.70;;;15.50;92.30;;;;;;5054819;28;20475;-83
2021/05/15 00:47:21;;;;;;;9.88;7.00;;;15.50;92.20;;;;;;5054753;28;20029;-80
2021/05/15 00:49:49;;;;;;;11.20;7.80;;;15.50;92.90;;;;;;5056451;28;20022;-81
2021/05/15 00:52:17;;;;;;;10.10;8.50;;;15.40;92.50;;;;;;5038405;28;20525;-82
2021/05/15 00:54:44;;;;;;;11.68;7.80;;;15.40;92.50;;;;;;5055976;28;20028;-82
2021/05/15 00:57:11;;;;;;;8.13;7.10;;;15.40;92.50;;;;;;5055700;28;20035;-82
2021/05/15 00:59:38;;;;;;;6.90;5.50;;;15.40;92.40;;;;;;5055657;28;20051;-82
2021/05/15 01:02:05;;;;;;;7.53;4.93;;;15.40;92.40;;;;;;5054552;28;20181;-83
2021/05/15 01:04:31;;;;;;;6.80;4.95;;;15.40;92.40;;;;;;5054593;28;20052;-82
2021/05/15 01:06:58;;;;;;;4.75;3.92;;;15.30;92.40;;;;;;5054514;28;20398;-81
2021/05/15 01:09:25;;;;;;;5.15;4.05;;;15.30;92.50;;;;;;5054490;28;20052;-81
2021/05/15 01:11:51;;;;;;;5.07;3.80;;;15.30;92.50;;;;;;5055742;28;20079;-83
2021/05/15 01:14:18;;;;;;;5.07;3.90;;;15.30;92.50;;;;;;5055070;28;20028;-81
2021/05/15 01:16:43;;;;;;;4.95;4.13;;;15.20;92.50;;;;;;5054325;28;20078;-81
2021/05/15 01:19:11;;;;;;;7.40;4.50;;;15.20;92.60;;;;;;5038003;28;20032;-82
2021/05/15 01:21:37;;;;;;;9.05;5.15;;;15.20;92.60;;;;;;5054252;28;20085;-92
2021/05/15 01:24:04;;;;;;;9.95;6.20;;;15.20;92.80;;;;;;5053837;28;20033;-80
2021/05/15 01:26:32;;;;;;;7.43;5.50;;;15.20;92.90;;;;;;5053283;28;20467;-81
2021/05/15 01:29:04;;;;;;;7.38;5.38;;;15.10;92.80;;;;;;5054363;28;20048;-81
2021/05/15 01:31:30;;;;;;;9.23;6.38;;;15.10;92.90;;;;;;5054434;28;20021;-82
2021/05/15 01:33:57;;;;;;;10.32;6.10;;;15.00;93.00;;;;;;5055094;28;20502;-80
2021/05/15 01:36:24;;;;;;;8.80;5.55;;;15.00;93.10;;;;;;5053671;28;20032;-80
2021/05/15 01:38:51;;;;;;;8.73;5.82;;;15.00;93.10;;;;;;5055158;28;20017;-80
2021/05/15 01:41:18;;;;;;;9.13;5.65;;;15.00;93.20;;;;;;5037614;28;20036;-81
2021/05/15 01:43:46;;;;;;;9.52;5.47;;;14.90;93.20;;;;;;5055132;28;20029;-80
2021/05/15 01:46:13;;;;;;;6.95;5.68;;;14.90;93.20;;;;;;5053483;28;20491;-81
2021/05/15 01:48:39;;;;;;;9.02;5.63;;;14.90;93.30;;;;;;5053733;28;20494;-83
2021/05/15 01:51:08;;;;;;;9.07;6.20;;;14.90;93.20;;;;;;5037252;28;20028;-79
2021/05/15 01:53:37;;;;;;;8.02;5.97;;;14.80;93.40;;;;;;5053577;28;20025;-79
2021/05/15 01:56:06;;;;;;;8.40;6.45;;;14.80;93.40;;;;;;5053621;28;20020;-81
2021/05/15 01:58:33;;;;;;;6.20;5.35;;;14.80;93.50;;;;;;5053577;28;20453;-81
2021/05/15 02:00:59;;;;;;;8.65;5.97;;;14.80;93.40;;;;;;5053507;28;20036;-81
2021/05/15 02:03:25;;;;;;;8.25;6.28;;;14.70;93.50;;;;;;5053182;28;20044;-83
2021/05/15 02:05:53;;;;;;;7.57;5.68;;;14.70;93.50;;;;;;5054647;28;20025;-80
2021/05/15 02:08:19;;;;;;;8.95;5.68;;;14.70;93.60;;;;;;5054337;28;20552;-80
2021/05/15 02:10:46;;;;;;;7.57;6.50;;;14.70;93.60;;;;;;5053605;28;20042;-80
2021/05/15 02:13:13;;;;;;;10.77;5.90;;;14.70;93.70;;;;;;5053311;28;20059;-80
2021/05/15 02:15:40;;;;;;;5.65;4.72;;;14.60;94.10;;;;;;5054320;28;20036;-81
2021/05/15 02:18:08;;;;;;;7.65;6.10;;;14.60;93.80;;;;;;5053470;28;20409;-82
2021/05/15 02:20:35;;;;;;;5.63;5.07;;;14.60;94.00;;;;;;5053262;28;20017;-81
2021/05/15 02:23:01;;;;;;;7.60;4.88;;;14.50;93.90;;;;;;5053028;28;20028;-80
2021/05/15 02:25:27;;;;;;;7.30;5.20;;;14.50;93.90;;;;;;5051978;28;20426;-81
2021/05/15 02:27:53;;;;;;;8.05;5.28;;;14.50;93.90;;;;;;5054569;28;20017;-81
2021/05/15 02:30:21;;;;;;;5.80;5.28;;;14.50;93.90;;;;;;5052591;28;20017;-80
2021/05/15 02:32:47;;;;;;;9.05;6.45;;;14.50;93.90;;;;;;5053169;28;20032;-82
2021/05/15 02:35:14;;;;;;;8.43;6.10;;;14.50;94.20;;;;;;5054076;28;20033;-81
2021/05/15 02:37:41;;;;;;;6.45;5.78;;;14.40;94.30;;;;;;5054072;28;20029;-81
2021/05/15 02:40:08;;;;;;;7.85;5.15;;;14.40;94.20;;;;;;5054104;28;20029;-80
2021/05/15 02:42:36;;;;;;;9.75;6.32;;;14.40;94.10;;;;;;5052722;28;20024;-81
2021/05/15 02:45:05;;;;;;;8.82;6.18;;;14.40;94.30;;;;;;5052908;28;20040;-80
2021/05/15 02:47:32;;;;;;;10.77;6.13;;;14.30;94.30;;;;;;5053973;28;20028;-81
2021/05/15 02:49:58;;;;;;;6.53;5.53;;;14.40;94.30;;;;;;5053943;28;20028;-80
2021/05/15 02:52:24;;;;;;;8.02;5.80;;;14.40;94.50;;;;;;5036054;28;20032;-79
2021/05/15 02:54:50;;;;;;;7.50;6.20;;;14.40;94.40;;;;;;5053744;28;20055;-82
2021/05/15 02:57:16;;;;;;;6.45;5.85;;;14.40;94.50;;;;;;5053731;28;20067;-80
2021/05/15 02:59:42;;;;;;;6.00;5.40;;;14.40;94.50;;;;;;5053092;28;20044;-84
2021/05/15 03:02:08;;;;;;;13.13;6.82;;;14.40;94.40;;;;;;5053598;28;20028;-79
2021/05/15 03:04:33;;;;;;;10.48;6.30;;;14.40;94.50;;;;;;5053508;28;20493;-80
2021/05/15 03:07:00;;;;;;;9.43;7.00;;;14.40;94.50;;;;;;5053619;28;20055;-79
2021/05/15 03:09:27;;;;;;;8.77;6.53;;;14.40;94.50;;;;;;5054044;28;20025;-85
2021/05/15 03:11:53;;;;;;;10.00;7.22;;;14.50;94.50;;;;;;5052580;28;20029;-80
2021/05/15 03:14:19;;;;;;;11.35;7.38;;;14.50;94.60;;;;;;5053662;28;20029;-82
2021/05/15 03:16:45;;;;;;;10.23;7.97;;;14.50;94.80;;;;;;5053441;28;20025;-85
2021/05/15 03:19:11;;;;;;;9.63;7.32;;;14.50;94.70;;;;;;5052642;28;20021;-82
2021/05/15 03:21:37;;;;;;;13.50;8.10;;;14.50;94.60;;;;;;5052398;28;20075;-81
2021/05/15 03:24:04;;;;;;;11.90;8.68;;;14.50;94.60;;;;;;5053235;28;20390;-81
2021/05/15 03:26:30;;;;;;;9.52;7.35;;;14.60;94.80;;;;;;5035161;28;20056;-88
2021/05/15 03:28:57;;;;;;;10.48;7.45;;;14.50;94.70;;;;;;5035656;28;20445;-84
2021/05/15 03:31:23;;;;;;;9.48;7.40;;;14.50;94.70;;;;;;5052442;28;20468;-84
2021/05/15 03:33:49;;;;;;;10.40;7.25;;;14.50;94.80;;;;;;5053420;28;20032;-81
2021/05/15 03:36:14;;;;;;;6.85;6.13;;;14.60;94.80;;;;;;5054566;28;20092;-88
2021/05/15 03:38:40;;;;;;;11.45;7.10;;;14.60;94.80;;;;;;5056484;28;20025;-84
2021/05/15 03:41:06;;;;;;;8.38;6.43;;;14.60;94.80;;;;;;5056150;28;20025;-81
2021/05/15 03:43:31;;;;;;;10.23;6.72;;;14.60;94.70;;;;;;5055763;28;20029;-79
2021/05/15 03:45:58;;;;;;;8.05;6.40;;;14.60;94.70;;;;;;5057230;28;20013;-78
2021/05/15 03:48:24;;;;;;;10.43;6.63;;;14.70;94.80;;;;;;5056207;28;20027;-79
2021/05/15 03:50:54;;;;;;;10.07;7.20;;;14.70;94.80;;;;;;5056902;28;20103;-79
2021/05/15 03:53:21;;;;;;;10.75;6.85;;;14.70;94.90;;;;;;5057243;28;20028;-80
2021/05/15 03:55:47;;;;;;;9.07;6.93;;;14.80;94.90;;;;;;5055790;28;20116;-79
2021/05/15 03:58:14;;;;;;;8.95;6.45;;;14.80;95.00;;;;;;5057151;28;20095;-81
2021/05/15 04:00:40;;;;;;;10.52;6.45;;;14.80;95.10;;;;;;5055633;28;20025;-81
2021/05/15 04:03:06;;;;;;;11.27;6.40;;;14.80;94.80;;;;;;5055569;28;20059;-85
2021/05/15 04:05:32;;;;;;;8.40;5.57;;;14.80;94.70;;;;;;5057188;28;20401;-87
2021/05/15 04:07:57;;;;;;;9.50;6.03;;;14.90;94.70;;;;;;5039339;28;20082;-80
2021/05/15 04:10:23;;;;;;;9.40;6.55;;;14.90;94.70;;;;;;5055218;28;20386;-80
2021/05/15 04:18:11;;;;;;;9.80;6.68;;;15.00;94.80;;;;;;5056904;28;20028;-81
2021/05/15 04:20:41;;;;;;;8.25;6.30;;;15.00;94.80;;;;;;5056772;28;20029;-87
2021/05/15 04:23:08;;;;;;;8.38;6.50;;;15.10;94.80;;;;;;5056471;28;20045;-85
2021/05/15 04:25:35;;;;;;;8.13;6.55;;;15.10;94.80;;;;;;5055076;28;20025;-80
2021/05/15 04:28:01;;;;;;;8.15;6.22;;;15.10;94.80;;;;;;5055371;28;20136;-78
2021/05/15 04:30:27;;;;;;;9.60;7.20;;;15.20;94.80;;;;;;5055283;28;20025;-80
2021/05/15 04:32:55;;;;;;;8.73;6.63;;;15.20;94.80;;;;;;5056252;28;20025;-83
2021/05/15 04:35:22;;;;;;;8.60;7.30;;;15.30;94.70;;;;;;5056453;28;20025;-77
2021/05/15 04:37:48;;;;;;;9.70;6.35;;;15.40;94.60;;;;;;5054968;28;20033;-82
2021/05/15 04:40:14;;;;;;;8.23;6.22;;;15.50;94.60;;;;;;5054809;28;20112;-85
2021/05/15 04:42:40;;;;;;;8.18;6.85;;;15.50;94.50;;;;;;5055970;28;20390;-85
2021/05/15 04:45:10;;;;;;;6.50;5.45;;;15.50;94.40;;;;;;5054773;28;20100;-88
2021/05/15 04:47:36;;;;;;;9.93;6.75;;;15.60;94.30;;;;;;5055399;28;20061;-81
2021/05/15 04:50:05;;;;;;;9.48;6.40;;;15.60;94.30;;;;;;5056139;28;20474;-82
2021/05/15 04:52:31;;;;;;;6.28;5.50;;;15.60;94.40;;;;;;5056352;28;20437;-79
2021/05/15 04:54:58;;;;;;;7.85;6.13;;;15.70;94.30;;;;;;5038533;28;20041;-86
2021/05/15 04:57:24;;;;;;;9.20;6.20;;;15.70;94.10;;;;;;5054726;28;20458;-81
2021/05/15 04:59:50;;;;;;;7.75;5.55;;;15.80;94.40;;;;;;5037864;28;20037;-91
2021/05/15 05:02:17;;;;;;;7.35;5.88;;;15.80;94.10;;;;;;5055204;28;20106;-89
2021/05/15 05:04:44;;;;;;;7.32;5.72;;;15.90;94.00;;;;;;5055608;28;20466;-82
2021/05/15 05:07:10;;;;;;;9.07;6.15;;;15.90;94.10;;;;;;5054335;28;20024;-87
2021/05/15 05:09:35;;;;;;;8.88;5.93;;;16.00;93.70;;;;;;5054703;28;20021;-82
2021/05/15 05:12:01;;;;;;;8.02;6.68;;;16.00;93.70;;;;;;5055804;28;20150;-83
2021/05/15 05:14:27;;;;;;;9.35;6.20;;;16.00;93.80;;;;;;5054376;28;20360;-79
2021/05/15 05:16:55;;;;;;;7.35;5.88;;;16.10;93.80;;;;;;5054434;28;20474;-79
2021/05/15 05:19:23;;;;;;;8.30;6.28;;;16.20;93.80;;;;;;5055578;28;20463;-81
2021/05/15 05:21:50;;;;;;;8.18;5.32;;;16.20;93.60;;;;;;5055884;28;20100;-80
2021/05/15 05:24:16;;;;;;;7.90;5.70;;;16.20;93.60;;;;;;5055580;28;20515;-80
2021/05/15 05:26:43;;;;;;;9.27;5.95;;;16.30;93.60;;;;;;5053925;28;20096;-85
2021/05/15 05:29:09;;;;;;;6.28;5.38;;;16.40;93.30;;;;;;5054273;28;20075;-84
2021/05/15 05:31:41;;;;;;;7.20;5.22;;;16.40;93.30;;;;;;5055391;28;20402;-88
2021/05/15 05:34:08;;;;;;;6.22;4.57;;;16.50;93.30;;;;;;5021593;28;20029;-78
2021/05/15 05:36:35;;;;;;;6.28;4.30;;;16.60;93.20;;;;;;5055492;28;20108;-82
2021/05/15 05:39:01;;;;;;;5.22;4.65;;;16.60;93.20;;;;;;5055253;28;20036;-80
2021/05/15 05:41:27;;;;;;;5.38;4.35;;;16.70;93.00;;;;;;5055146;28;20064;-84
2021/05/15 05:43:54;;;;;;;4.78;3.90;;;16.70;93.00;;;;;;5054848;28;20067;-81
2021/05/15 05:46:20;;;;;;;4.53;3.70;;;16.80;92.80;;;;;;5054067;28;20059;-85
2021/05/15 05:48:48;;;;;;;4.43;3.70;;;16.80;92.60;;;;;;5055339;28;20083;-87
2021/05/15 05:51:17;;;;;;;3.95;3.35;;;16.90;92.10;;;;;;5053959;28;20025;-88
2021/05/15 05:53:42;;;;;;;3.17;2.88;;;17.00;92.00;;;;;;5053768;28;20029;-81
2021/05/15 05:56:09;;;;;;;4.05;2.95;;;17.00;91.80;;;;;;5054588;28;20044;-81
2021/05/15 05:58:36;;;;;;;4.50;2.72;;;17.10;91.60;;;;;;5054013;28;20112;-83
2021/05/15 06:01:01;;;;;;;2.72;2.45;;;17.10;91.50;;;;;;5053816;28;20452;-87
2021/05/15 06:03:27;;;;;;;4.53;2.42;;;17.20;91.20;;;;;;5053338;28;20180;-81
2021/05/15 06:05:55;;;;;;;2.55;2.35;;;17.30;91.00;;;;;;5054660;28;20462;-84
2021/05/15 06:08:21;;;;;;;2.70;2.50;;;17.30;90.90;;;;;;5037419;28;20036;-73
2021/05/15 06:10:47;;;;;;;3.05;2.50;;;17.40;90.50;;;;;;5053946;28;20040;-82
2021/05/15 06:13:18;;;;;;;4.05;2.67;;;17.50;90.40;;;;;;5054874;28;20108;-85
2021/05/15 06:15:44;;;;;;;2.42;2.22;;;17.60;90.30;;;;;;5054826;28;20029;-86
2021/05/15 06:18:11;;;;;;;2.63;2.30;;;17.50;90.60;;;;;;5053111;28;20364;-84
2021/05/15 06:20:38;;;;;;;2.60;2.40;;;17.50;90.70;;;;;;5053050;28;20078;-79
2021/05/15 06:23:04;;;;;;;2.25;2.03;;;17.60;90.50;;;;;;5020526;28;20470;-82
2021/05/15 06:25:30;;;;;;;2.92;2.60;;;17.60;90.50;;;;;;5052860;28;20025;-78
2021/05/15 06:27:55;;;;;;;2.45;1.80;;;17.70;90.40;;;;;;5052752;28;20025;-77
2021/05/15 06:30:22;;;;;;;2.20;2.00;;;17.70;90.30;;;;;;5054296;28;20105;-81
2021/05/15 06:32:49;;;;;;;1.98;1.85;;;17.80;90.20;;;;;;5054185;28;20474;-84
2021/05/15 06:35:17;;;;;;;2.20;2.05;;;17.90;90.20;;;;;;5053599;28;20033;-78
2021/05/15 06:37:43;;;;;;;4.28;2.38;;;18.00;89.10;;;;;;5054172;28;20025;-81
2021/05/15 06:40:10;;;;;;;1.90;1.70;;;18.10;88.80;;;;;;5053974;28;20060;-79
2021/05/15 06:42:36;;;;;;;2.38;2.17;;;18.10;89.10;;;;;;5052820;28;20069;-79
2021/05/15 06:45:03;;;;;;;2.13;2.00;;;18.10;89.30;;;;;;5052295;28;20182;-77
2021/05/15 06:47:29;;;;;;;3.47;1.95;;;18.20;87.80;;;;;;5054115;28;20390;-80
2021/05/15 06:49:55;;;;;;;2.03;1.83;;;18.30;87.60;;;;;;5053640;28;20021;-79
2021/05/15 06:52:20;;;;;;;1.98;1.88;;;18.30;87.80;;;;;;5052645;28;20574;-80
2021/05/15 06:54:46;;;;;;;2.15;1.88;;;18.30;87.70;;;;;;5052401;28;20024;-76
2021/05/15 06:57:12;;;;;;;2.70;1.67;;;18.40;87.10;;;;;;5035519;28;20032;-77
2021/05/15 06:59:38;;;;;;;2.55;1.80;;;18.40;87.20;;;;;;5052865;28;20036;-79
2021/05/15 07:02:03;;;;;;;4.13;1.60;;;18.40;87.10;;;;;;5053361;28;20043;-83
2021/05/15 07:04:29;;;;;;;1.70;1.60;;;18.50;87.20;;;;;;5053714;28;20363;-80
2021/05/15 07:06:56;;;;;;;2.28;2.08;;;18.50;87.20;;;;;;5053592;28;20096;-77
2021/05/15 07:09:21;;;;;;;2.22;1.90;;;18.60;87.40;;;;;;5052169;28;20017;-79
2021/05/15 07:11:51;;;;;;;2.75;1.73;;;18.60;86.90;;;;;;5034890;28;20501;-77
2021/05/15 07:14:17;;;;;;;1.90;1.60;;;18.70;86.20;;;;;;5053893;28;20025;-83
2021/05/15 07:16:45;;;;;;;2.83;1.60;;;18.80;85.90;;;;;;5051719;28;20087;-77
2021/05/15 07:19:11;;;;;;;1.80;1.70;;;18.80;85.80;;;;;;5052331;28;20033;-81
2021/05/15 07:21:38;;;;;;;2.03;1.40;;;18.80;85.90;;;;;;5052848;28;20029;-79
2021/05/15 07:24:04;;;;;;;1.70;1.60;;;18.90;85.50;;;;;;5052535;28;20029;-81
2021/05/15 07:26:33;;;;;;;3.40;1.60;;;18.90;85.70;;;;;;5053311;28;20028;-78
2021/05/15 07:28:58;;;;;;;2.20;1.35;;;18.90;85.50;;;;;;5051917;28;20471;-79
2021/05/15 07:31:25;;;;;;;1.98;1.77;;;18.90;84.90;;;;;;5053762;28;20021;-80
2021/05/15 07:33:51;;;;;;;1.70;1.60;;;18.90;84.80;;;;;;5052171;28;20083;-76
2021/05/15 07:36:17;;;;;;;1.45;1.35;;;19.00;84.60;;;;;;5051879;28;20025;-81
2021/05/15 07:38:44;;;;;;;1.67;1.58;;;19.00;84.20;;;;;;5051938;28;20032;-79
2021/05/15 07:41:10;;;;;;;2.65;1.30;;;19.10;83.80;;;;;;5051870;28;20025;-77
2021/05/15 07:43:37;;;;;;;1.42;1.30;;;19.10;84.00;;;;;;5051795;28;20025;-79
2021/05/15 07:46:03;;;;;;;1.52;1.42;;;19.10;84.00;;;;;;5053591;28;20378;-75
2021/05/15 07:48:29;;;;;;;2.08;1.52;;;19.10;84.20;;;;;;5052069;28;20025;-77
2021/05/15 07:50:58;;;;;;;1.80;1.70;;;19.20;83.90;;;;;;5053514;28;20096;-82
2021/05/15 07:53:24;;;;;;;1.60;1.50;;;19.30;84.00;;;;;;5053542;28;20028;-76
2021/05/15 07:55:50;;;;;;;1.88;1.67;;;19.40;84.10;;;;;;5052100;28;20022;-75
2021/05/15 07:58:17;;;;;;;2.85;1.75;;;19.40;83.80;;;;;;5053578;28;20112;-74
2021/05/15 08:00:43;;;;;;;1.58;1.48;;;19.50;83.00;;;;;;5053133;28;20021;-81
2021/05/15 08:03:08;;;;;;;1.77;1.48;;;19.60;83.40;;;;;;5053067;28;20060;-74
2021/05/15 08:05:34;;;;;;;1.63;1.52;;;19.60;83.50;;;;;;5053058;28;20127;-81
2021/05/15 08:08:02;;;;;;;4.18;1.42;;;19.60;83.90;;;;;;5052187;28;20524;-75
2021/05/15 08:10:31;;;;;;;1.70;1.60;;;19.70;83.50;;;;;;5052137;28;20391;-76
2021/05/15 08:13:00;;;;;;;2.33;1.60;;;19.80;82.30;;;;;;5052367;28;20033;-79
2021/05/15 08:15:26;;;;;;;2.35;1.25;;;19.90;80.90;;;;;;5052800;28;20080;-73
2021/05/15 08:17:53;;;;;;;1.58;1.48;;;19.90;81.00;;;;;;5051469;28;20032;-82
2021/05/15 08:20:20;;;;;;;1.50;1.38;;;20.00;80.80;;;;;;5053808;28;20529;-86
2021/05/15 08:22:46;;;;;;;1.58;1.40;;;20.00;81.00;;;;;;5052427;28;20060;-87
2021/05/15 08:25:12;;;;;;;1.55;1.45;;;20.00;81.90;;;;;;5056213;28;20118;-84
2021/05/15 08:27:40;;;;;;;0.98;0.98;;;20.00;81.70;;;;;;5055314;28;20018;-86
2021/05/15 08:30:14;;;;;;;1.80;1.70;;;20.10;80.20;;;;;;5057045;28;20051;-83
2021/05/15 08:32:41;;;;;;;2.22;1.50;;;20.20;79.90;;;;;;5056535;28;20017;-82
2021/05/15 08:35:08;;;;;;;1.70;1.60;;;20.20;79.30;;;;;;5038724;28;20032;-87
2021/05/15 08:37:35;;;;;;;1.30;1.20;;;20.40;78.90;;;;;;5055802;28;20485;-89
2021/05/15 08:40:02;;;;;;;1.05;1.00;;;20.60;78.10;;;;;;5055284;28;20475;-82
2021/05/15 08:42:31;;;;;;;5.15;1.50;;;20.70;76.80;;;;;;5055168;28;20033;-78
2021/05/15 08:44:57;;;;;;;1.17;0.98;;;20.80;74.30;;;;;;5055232;28;20029;-75
2021/05/15 08:47:23;;;;;;;1.85;0.85;;;20.90;73.20;;;;;;5055377;28;20071;-74
2021/05/15 08:49:49;;;;;;;1.73;1.08;;;21.00;71.30;;;;;;5056541;28;20057;-79
2021/05/15 08:52:15;;;;;;;1.25;1.15;;;21.10;71.20;;;;;;5055074;28;20017;-75
2021/05/15 08:54:40;;;;;;;1.88;1.15;;;21.10;72.30;;;;;;5056449;28;20049;-87
2021/05/15 08:57:07;;;;;;;1.50;1.13;;;21.20;70.90;;;;;;5054468;28;20490;-74
2021/05/15 08:59:34;;;;;;;1.10;1.00;;;21.30;70.40;;;;;;5055281;28;20033;-85
2021/05/15 09:02:00;;;;;;;1.33;0.95;;;21.30;71.10;;;;;;5037651;28;20029;-82
2021/05/15 09:04:26;;;;;;;1.50;0.90;;;21.30;70.20;;;;;;5054492;28;20039;-79
2021/05/15 09:06:52;;;;;;;1.90;1.02;;;21.30;69.60;;;;;;5055813;28;20037;-81
2021/05/15 09:09:19;;;;;;;1.20;0.82;;;21.50;67.90;;;;;;5054867;28;20036;-83
2021/05/15 09:11:47;;;;;;;2.05;1.02;;;21.50;69.00;;;;;;5056283;28;20022;-76
2021/05/15 09:14:19;;;;;;;1.02;1.00;;;21.70;69.60;;;;;;5056085;28;20135;-81
2021/05/15 09:16:51;;;;;;;1.10;0.77;;;21.80;67.60;;;;;;5055571;28;20040;-82
2021/05/15 09:19:23;;;;;;;0.80;0.57;;;21.90;66.50;;;;;;5055231;28;20025;-76
2021/05/15 09:22:15;;;;;;;0.95;0.70;;;21.90;66.90;;;;;;5055330;28;20025;-83
2021/05/15 09:24:44;;;;;;;1.65;0.90;;;21.90;67.70;;;;;;5051511;28;20072;-79
2021/05/15 09:27:12;;;;;;;0.63;0.63;;;21.90;67.70;;;;;;5037581;28;20356;-83
2021/05/15 09:29:44;;;;;;;0.93;0.70;;;22.00;68.10;;;;;;5055523;28;20060;-90
2021/05/15 09:32:13;;;;;;;0.90;0.90;;;22.00;68.00;;;;;;5055502;28;20459;-86
2021/05/15 09:34:44;;;;;;;0.63;0.63;;;22.00;66.30;;;;;;5020972;28;20101;-87
2021/05/15 09:37:12;;;;;;;2.35;0.90;;;22.00;67.10;;;;;;5055320;28;20025;-78
2021/05/15 09:39:37;;;;;;;1.33;1.02;;;22.00;66.50;;;;;;5055203;28;20084;-86
2021/05/15 09:42:04;;;;;;;0.77;0.70;;;22.10;66.80;;;;;;5055047;28;20029;-81
2021/05/15 09:44:35;;;;;;;1.50;1.40;;;22.00;67.30;;;;;;5053177;28;20494;-87
2021/05/15 09:47:02;;;;;;;1.40;1.30;;;22.10;67.30;;;;;;5054783;28;20017;-88
2021/05/15 09:49:30;;;;;;;1.40;1.30;;;22.20;67.60;;;;;;5055162;28;20375;-84
2021/05/15 09:52:16;;;;;;;1.35;1.20;;;22.30;65.00;;;;;;5053553;28;20021;-79
2021/05/15 09:54:44;;;;;;;1.83;1.38;;;22.40;65.60;;;;;;5053281;28;20037;-76
2021/05/15 09:57:11;;;;;;;1.42;1.33;;;22.40;65.30;;;;;;5054638;28;20024;-78
2021/05/15 09:59:42;;;;;;;1.75;1.20;;;22.40;65.10;;;;;;5053006;28;20390;-81
2021/05/15 10:02:09;;;;;;;1.40;1.30;;;22.40;64.90;;;;;;5052749;28;20083;-74
2021/05/15 10:04:35;;;;;;;0.90;0.90;;;22.20;65.00;;;;;;5053548;28;20030;-77
2021/05/15 10:07:02;;;;;;;2.28;0.90;;;22.20;63.40;;;;;;5053059;28;20083;-80
2021/05/15 10:09:32;;;;;;;1.10;1.00;;;22.10;63.90;;;;;;5054859;28;20013;-86
2021/05/15 10:12:02;;;;;;;1.85;1.10;;;22.10;63.00;;;;;;5052743;28;20021;-75
2021/05/15 10:14:28;;;;;;;;;;;22.10;64.00;;;;;;5055495;28;20040;-78
2021/05/15 10:16:54;;;;;;;0.93;0.85;;;22.10;65.00;;;;;;5052775;28;19905;-77
2021/05/15 10:19:20;;;;;;;1.17;0.75;;;22.10;65.30;;;;;;5054837;28;20347;-80
2021/05/15 10:21:48;;;;;;;0.60;0.60;;;22.20;65.10;;;;;;5054194;28;20032;-86
2021/05/15 10:24:28;;;;;;;1.75;1.20;;;22.10;65.00;;;;;;5053767;28;20095;-78
2021/05/15 10:27:09;;;;;;;1.40;1.00;;;22.30;62.00;;;;;;5054961;28;20024;-75
2021/05/15 10:29:37;;;;;;;1.55;1.23;;;22.30;62.60;;;;;;5053239;28;20029;-75
2021/05/15 10:32:03;;;;;;;2.83;0.80;;;22.30;63.40;;;;;;5053350;28;20025;-84
2021/05/15 10:34:34;;;;;;;0.60;0.60;;;22.20;63.60;;;;;;5053264;28;20422;-83
2021/05/15 10:37:02;;;;;;;0.60;0.60;;;22.20;64.10;;;;;;5036431;28;20391;-78
2021/05/15 10:39:33;;;;;;;0.50;0.50;;;22.30;62.70;;;;;;5054076;28;20498;-82
2021/05/15 10:42:01;;;;;;;0.57;0.50;;;22.40;62.30;;;;;;5054632;28;20111;-76
2021/05/15 10:44:41;;;;;;;2.17;0.80;;;22.50;61.10;;;;;;5053942;28;20029;-84
2021/05/15 10:47:07;;;;;;;0.77;0.77;;;22.50;61.10;;;;;;5052241;28;20029;-84
2021/05/15 10:49:33;;;;;;;1.10;0.90;;;22.60;61.20;;;;;;5053774;28;20497;-87
2021/05/15 10:52:17;;;;;;;1.95;0.60;;;22.70;61.20;;;;;;5053897;28;20024;-81
2021/05/15 10:55:00;;;;;;;1.23;0.65;;;22.80;59.10;;;;;;5052375;28;20021;-83
2021/05/15 10:57:29;;;;;;;0.55;0.55;;;22.80;58.80;;;;;;5037485;28;20394;-78
2021/05/15 11:00:00;;;;;;;0.30;0.30;;;23.00;57.20;;;;;;5036852;28;20029;-78
2021/05/15 11:02:39;;;;;;;0.47;0.47;;;22.90;57.60;;;;;;5052688;28;20053;-78
2021/05/15 11:05:14;;;;;;;1.08;0.77;;;22.90;58.90;;;;;;5036452;28;20048;-77
2021/05/15 11:07:40;;;;;;;1.10;0.90;;;23.00;58.10;;;;;;5052705;28;20029;-80
2021/05/15 11:10:16;;;;;;;0.77;0.68;;;22.90;58.70;;;;;;5052737;28;20021;-78
2021/05/15 11:12:53;;;;;;;2.20;0.80;;;23.00;59.40;;;;;;5052506;28;20133;-76
2021/05/15 11:15:26;;;;;;;0.60;0.60;;;23.00;58.10;;;;;;5053638;28;20150;-74
2021/05/15 11:18:06;;;;;;;1.40;0.60;;;23.10;57.90;;;;;;5052230;28;20422;-77
2021/05/15 11:20:48;;;;;;;;;;;23.00;57.70;;;;;;5052794;28;20029;-79
2021/05/15 11:23:21;;;;;;;2.15;0.75;;;23.00;58.10;;;;;;5052122;28;19999;-77
2021/05/15 11:25:55;;;;;;;1.38;0.90;;;23.00;55.60;;;;;;5053531;28;20032;-89
2021/05/15 11:28:25;;;;;;;1.00;1.00;;;23.00;56.60;;;;;;5052453;28;20028;-79
2021/05/15 11:30:52;;;;;;;4.75;1.05;;;22.90;57.60;;;;;;5052221;28;20028;-77
2021/05/15 11:33:22;;;;;;;0.50;0.50;;;22.90;58.60;;;;;;5053459;28;20108;-79
2021/05/15 11:35:49;;;;;;;2.00;0.60;;;23.00;57.80;;;;;;5035912;28;20049;-83
2021/05/15 11:38:21;;;;;;;0.57;0.57;;;23.10;56.80;;;;;;5052151;28;20111;-82
2021/05/15 11:40:46;;;;;;;0.55;0.55;;;23.00;57.00;;;;;;5052085;28;20485;-83
2021/05/15 11:43:30;;;;;;;1.13;0.70;;;23.10;56.80;;;;;;5052361;28;20033;-76
2021/05/15 11:45:56;;;;;;;0.90;0.60;;;23.20;57.50;;;;;;5053234;28;20035;-80
2021/05/15 11:48:25;;;;;;;1.42;0.50;;;23.30;56.10;;;;;;5052977;28;20025;-81
2021/05/15 11:50:58;;;;;;;1.55;0.85;;;23.40;55.60;;;;;;5053078;28;20429;-86
2021/05/15 11:53:24;;;;;;;0.85;0.70;;;23.40;55.30;;;;;;5052940;28;20024;-85
2021/05/15 11:55:51;;;;;;;0.50;0.50;;;23.50;55.50;;;;;;5051689;28;20018;-78
2021/05/15 11:58:17;;;;;;;0.50;0.50;;;23.40;55.50;;;;;;5056086;28;20024;-76
2021/05/15 12:00:45;;;;;;;0.80;0.70;;;23.70;56.80;;;;;;5056447;28;20029;-76
2021/05/15 12:03:12;;;;;;;0.95;0.73;;;24.80;54.00;;;;;;5055249;28;20098;-79
2021/05/15 12:05:38;;;;;;;0.50;0.50;;;26.30;50.80;;;;;;5055918;28;20037;-86
2021/05/15 12:08:13;;;;;;;0.40;0.40;;;27.50;50.60;;;;;;5055532;28;20025;-84
2021/05/15 12:10:40;;;;;;;0.40;0.40;;;28.70;49.00;;;;;;5055800;28;20031;-86
2021/05/15 12:13:06;;;;;;;0.55;0.55;;;29.60;47.80;;;;;;5056790;28;20079;-88
2021/05/15 12:15:32;;;;;;;0.50;0.50;;;30.50;47.00;;;;;;5039181;28;20056;-83
2021/05/15 12:18:00;;;;;;;2.78;0.93;;;31.50;44.60;;;;;;5057156;28;20455;-84
2021/05/15 12:20:30;;;;;;;2.65;1.38;;;31.90;42.50;;;;;;5056804;28;20029;-82
2021/05/15 12:23:14;;;;;;;1.63;0.90;;;31.60;40.90;;;;;;5057214;28;20474;-86
2021/05/15 12:25:42;;;;;;;0.50;0.50;;;30.70;42.30;;;;;;5055882;28;20029;-81
2021/05/15 12:28:19;;;;;;;0.50;0.50;;;30.00;43.80;;;;;;5039079;28;20025;-86
2021/05/15 12:30:46;;;;;;;3.22;0.50;;;30.30;44.30;;;;;;5056909;28;20238;-87
2021/05/15 12:33:17;;;;;;;3.67;0.75;;;30.80;43.70;;;;;;5056459;28;20036;-79
2021/05/15 12:35:44;;;;;;;3.97;0.68;;;31.70;43.10;;;;;;5056773;28;20033;-81
2021/05/15 12:38:18;;;;;;;0.82;0.30;;;32.30;42.80;;;;;;5056972;28;20394;-93
2021/05/15 12:40:43;;;;;;;0.57;0.57;;;33.00;42.20;;;;;;5056359;28;20032;-92
2021/05/15 12:43:14;;;;;;;1.25;0.40;;;33.60;41.70;;;;;;5056618;28;20033;-86
2021/05/15 12:45:43;;;;;;;3.45;0.50;;;34.20;41.10;;;;;;5055085;28;20033;-83
2021/05/15 12:48:39;;;;;;;0.60;0.35;;;34.60;38.90;;;;;;5056287;28;20023;-82
2021/05/15 12:51:14;;;;;;;0.45;0.45;;;34.50;39.20;;;;;;5056406;28;20021;-81
2021/05/15 12:53:41;;;;;;;0.88;0.60;;;35.00;37.90;;;;;;5048665;28;20505;-83